sensor_id;sensor_type;location;lat;lon;timestamp;P1;durP1;ratioP1;P2;durP2;ratioP2
1390;SDS011;690;51.454;7.194;2023-03-21T00:01:42;16.30;;;9.07;;
1390;SDS011;690;51.454;7.194;2023-03-21T00:04:09;15.77;;;8.83;;
1390;SDS011;690;51.454;7.194;2023-03-21T00:06:36;22.80;;;12.40;;
1390;SDS011;690;51.454;7.194;2023-03-21T00:09:03;16.93;;;8.90;;
1390;SDS011;690;51.454;7.194;2023-03-21T00:11:30;16.53;;;9.10;;
1390;SDS011;690;51.454;7.194;2023-03-21T00:13:58;17.13;;;8.10;;
1390;SDS011;690;51.454;7.194;2023-03-21T00:16:26;15.50;;;9.50;;
1390;SDS011;690;51.454;7.194;2023-03-21T00:18:54;14.00;;;8.07;;
1390;SDS011;690;51.454;7.194;2023-03-21T00:21:22;16.83;;;8.27;;
1390;SDS011;690;51.454;7.194;2023-03-21T00:23:52;16.43;;;8.33;;
1390;SDS011;690;51.454;7.194;2023-03-21T00:26:20;17.10;;;8.97;;
1390;SDS011;690;51.454;7.194;2023-03-21T00:28:47;15.73;;;7.47;;
1390;SDS011;690;51.454;7.194;2023-03-21T00:31:16;15.20;;;8.03;;
1390;SDS011;690;51.454;7.194;2023-03-21T00:33:43;15.43;;;6.40;;
1390;SDS011;690;51.454;7.194;2023-03-21T00:36:10;12.70;;;7.23;;
1390;SDS011;690;51.454;7.194;2023-03-21T00:38:38;12.30;;;7.30;;
1390;SDS011;690;51.454;7.194;2023-03-21T00:41:05;13.33;;;6.83;;
1390;SDS011;690;51.454;7.194;2023-03-21T00:43:32;14.13;;;7.60;;
1390;SDS011;690;51.454;7.194;2023-03-21T00:45:59;12.50;;;8.07;;
1390;SDS011;690;51.454;7.194;2023-03-21T00:48:28;11.73;;;6.90;;
1390;SDS011;690;51.454;7.194;2023-03-21T00:50:56;14.03;;;6.90;;
1390;SDS011;690;51.454;7.194;2023-03-21T00:53:24;11.77;;;6.30;;
1390;SDS011;690;51.454;7.194;2023-03-21T00:55:52;12.13;;;6.30;;
1390;SDS011;690;51.454;7.194;2023-03-21T00:58:18;14.30;;;6.83;;
1390;SDS011;690;51.454;7.194;2023-03-21T01:00:45;12.23;;;6.10;;
1390;SDS011;690;51.454;7.194;2023-03-21T01:03:13;12.23;;;7.07;;
1390;SDS011;690;51.454;7.194;2023-03-21T01:05:43;15.03;;;6.63;;
1390;SDS011;690;51.454;7.194;2023-03-21T01:08:31;14.70;;;6.30;;
1390;SDS011;690;51.454;7.194;2023-03-21T01:11:00;14.10;;;6.50;;
1390;SDS011;690;51.454;7.194;2023-03-21T01:13:29;9.80;;;6.23;;
1390;SDS011;690;51.454;7.194;2023-03-21T01:15:56;12.90;;;6.57;;
1390;SDS011;690;51.454;7.194;2023-03-21T01:18:24;11.60;;;5.73;;
1390;SDS011;690;51.454;7.194;2023-03-21T01:20:54;11.53;;;6.63;;
1390;SDS011;690;51.454;7.194;2023-03-21T01:23:23;13.37;;;6.70;;
1390;SDS011;690;51.454;7.194;2023-03-21T01:25:52;16.23;;;8.50;;
1390;SDS011;690;51.454;7.194;2023-03-21T01:28:20;14.77;;;6.63;;
1390;SDS011;690;51.454;7.194;2023-03-21T01:30:48;9.03;;;6.17;;
1390;SDS011;690;51.454;7.194;2023-03-21T01:33:16;12.93;;;6.23;;
1390;SDS011;690;51.454;7.194;2023-03-21T01:35:44;10.43;;;6.60;;
1390;SDS011;690;51.454;7.194;2023-03-21T01:38:13;15.03;;;6.60;;
1390;SDS011;690;51.454;7.194;2023-03-21T01:40:40;11.60;;;7.20;;
1390;SDS011;690;51.454;7.194;2023-03-21T01:43:11;13.90;;;7.90;;
1390;SDS011;690;51.454;7.194;2023-03-21T01:48:52;25.77;;;9.30;;
1390;SDS011;690;51.454;7.194;2023-03-21T01:51:21;12.93;;;8.30;;
1390;SDS011;690;51.454;7.194;2023-03-21T01:53:51;14.87;;;8.80;;
1390;SDS011;690;51.454;7.194;2023-03-21T01:56:21;17.60;;;8.77;;
1390;SDS011;690;51.454;7.194;2023-03-21T01:58:51;25.23;;;9.77;;
1390;SDS011;690;51.454;7.194;2023-03-21T02:01:20;13.13;;;8.10;;
1390;SDS011;690;51.454;7.194;2023-03-21T02:03:48;17.43;;;8.73;;
1390;SDS011;690;51.454;7.194;2023-03-21T02:06:18;15.13;;;8.00;;
1390;SDS011;690;51.454;7.194;2023-03-21T02:08:59;12.13;;;7.50;;
1390;SDS011;690;51.454;7.194;2023-03-21T02:11:29;16.07;;;8.27;;
1390;SDS011;690;51.454;7.194;2023-03-21T02:13:57;18.30;;;8.33;;
1390;SDS011;690;51.454;7.194;2023-03-21T02:16:27;14.17;;;8.93;;
1390;SDS011;690;51.454;7.194;2023-03-21T02:19:03;14.17;;;8.47;;
1390;SDS011;690;51.454;7.194;2023-03-21T02:21:56;14.40;;;8.70;;
1390;SDS011;690;51.454;7.194;2023-03-21T02:24:59;18.80;;;9.73;;
1390;SDS011;690;51.454;7.194;2023-03-21T02:27:45;18.33;;;9.60;;
1390;SDS011;690;51.454;7.194;2023-03-21T02:30:27;17.93;;;9.97;;
1390;SDS011;690;51.454;7.194;2023-03-21T02:36:17;14.80;;;9.93;;
1390;SDS011;690;51.454;7.194;2023-03-21T02:38:54;17.17;;;9.70;;
1390;SDS011;690;51.454;7.194;2023-03-21T02:41:29;15.80;;;8.53;;
1390;SDS011;690;51.454;7.194;2023-03-21T02:44:04;14.87;;;10.03;;
1390;SDS011;690;51.454;7.194;2023-03-21T02:46:37;19.70;;;10.97;;
1390;SDS011;690;51.454;7.194;2023-03-21T02:49:08;18.73;;;8.93;;
1390;SDS011;690;51.454;7.194;2023-03-21T02:51:41;18.80;;;8.97;;
1390;SDS011;690;51.454;7.194;2023-03-21T02:54:12;17.40;;;9.30;;
1390;SDS011;690;51.454;7.194;2023-03-21T02:56:42;16.37;;;9.20;;
1390;SDS011;690;51.454;7.194;2023-03-21T02:59:13;18.93;;;10.13;;
1390;SDS011;690;51.454;7.194;2023-03-21T03:01:42;16.70;;;8.97;;
1390;SDS011;690;51.454;7.194;2023-03-21T03:04:16;14.47;;;9.90;;
1390;SDS011;690;51.454;7.194;2023-03-21T03:06:46;16.00;;;9.40;;
1390;SDS011;690;51.454;7.194;2023-03-21T03:09:29;17.37;;;11.03;;
1390;SDS011;690;51.454;7.194;2023-03-21T03:12:06;17.10;;;9.80;;
1390;SDS011;690;51.454;7.194;2023-03-21T03:14:49;16.50;;;10.30;;
1390;SDS011;690;51.454;7.194;2023-03-21T03:17:26;13.07;;;10.30;;
1390;SDS011;690;51.454;7.194;2023-03-21T03:20:07;17.03;;;11.50;;
1390;SDS011;690;51.454;7.194;2023-03-21T03:22:45;14.57;;;11.03;;
1390;SDS011;690;51.454;7.194;2023-03-21T03:25:20;16.20;;;10.77;;
1390;SDS011;690;51.454;7.194;2023-03-21T03:27:51;18.00;;;10.70;;
1390;SDS011;690;51.454;7.194;2023-03-21T03:30:21;20.83;;;10.73;;
1390;SDS011;690;51.454;7.194;2023-03-21T03:32:52;17.97;;;10.40;;
1390;SDS011;690;51.454;7.194;2023-03-21T03:35:22;15.17;;;10.13;;
1390;SDS011;690;51.454;7.194;2023-03-21T03:37:51;20.90;;;10.57;;
1390;SDS011;690;51.454;7.194;2023-03-21T03:40:24;14.30;;;10.70;;
1390;SDS011;690;51.454;7.194;2023-03-21T03:42:55;20.80;;;11.13;;
1390;SDS011;690;51.454;7.194;2023-03-21T03:45:27;19.00;;;10.10;;
1390;SDS011;690;51.454;7.194;2023-03-21T03:48:00;17.73;;;10.70;;
1390;SDS011;690;51.454;7.194;2023-03-21T03:50:33;16.17;;;11.03;;
1390;SDS011;690;51.454;7.194;2023-03-21T03:53:05;16.77;;;10.23;;
1390;SDS011;690;51.454;7.194;2023-03-21T03:55:39;15.53;;;10.53;;
1390;SDS011;690;51.454;7.194;2023-03-21T03:58:07;16.20;;;11.23;;
1390;SDS011;690;51.454;7.194;2023-03-21T04:00:34;13.03;;;9.10;;
1390;SDS011;690;51.454;7.194;2023-03-21T04:03:01;16.70;;;10.00;;
1390;SDS011;690;51.454;7.194;2023-03-21T04:05:31;17.73;;;10.30;;
1390;SDS011;690;51.454;7.194;2023-03-21T04:07:58;14.30;;;9.20;;
1390;SDS011;690;51.454;7.194;2023-03-21T04:10:25;14.77;;;9.00;;
1390;SDS011;690;51.454;7.194;2023-03-21T04:12:53;19.90;;;11.10;;
1390;SDS011;690;51.454;7.194;2023-03-21T04:15:20;18.63;;;10.90;;
1390;SDS011;690;51.454;7.194;2023-03-21T04:17:47;18.37;;;10.50;;
1390;SDS011;690;51.454;7.194;2023-03-21T04:20:14;20.83;;;10.80;;
1390;SDS011;690;51.454;7.194;2023-03-21T04:22:42;14.70;;;10.37;;
1390;SDS011;690;51.454;7.194;2023-03-21T04:25:09;15.23;;;9.80;;
1390;SDS011;690;51.454;7.194;2023-03-21T04:27:37;22.07;;;9.87;;
1390;SDS011;690;51.454;7.194;2023-03-21T04:30:06;16.27;;;10.50;;
1390;SDS011;690;51.454;7.194;2023-03-21T04:32:36;14.53;;;8.80;;
1390;SDS011;690;51.454;7.194;2023-03-21T04:35:04;15.90;;;10.47;;
1390;SDS011;690;51.454;7.194;2023-03-21T04:37:32;17.10;;;9.50;;
1390;SDS011;690;51.454;7.194;2023-03-21T04:40:00;15.60;;;9.43;;
1390;SDS011;690;51.454;7.194;2023-03-21T04:42:30;26.03;;;9.93;;
1390;SDS011;690;51.454;7.194;2023-03-21T04:44:57;13.30;;;9.67;;
1390;SDS011;690;51.454;7.194;2023-03-21T04:47:26;17.30;;;9.70;;
1390;SDS011;690;51.454;7.194;2023-03-21T04:49:53;20.90;;;9.17;;
1390;SDS011;690;51.454;7.194;2023-03-21T04:52:21;22.33;;;10.00;;
1390;SDS011;690;51.454;7.194;2023-03-21T04:54:48;19.70;;;10.43;;
1390;SDS011;690;51.454;7.194;2023-03-21T04:57:15;18.30;;;10.00;;
1390;SDS011;690;51.454;7.194;2023-03-21T04:59:42;15.20;;;9.40;;
1390;SDS011;690;51.454;7.194;2023-03-21T05:02:10;15.73;;;10.27;;
1390;SDS011;690;51.454;7.194;2023-03-21T05:04:38;18.00;;;10.27;;
1390;SDS011;690;51.454;7.194;2023-03-21T05:07:05;14.87;;;10.43;;
1390;SDS011;690;51.454;7.194;2023-03-21T05:09:32;19.00;;;10.47;;
1390;SDS011;690;51.454;7.194;2023-03-21T05:11:59;18.23;;;10.03;;
1390;SDS011;690;51.454;7.194;2023-03-21T05:14:26;17.00;;;9.70;;
1390;SDS011;690;51.454;7.194;2023-03-21T05:16:53;12.90;;;9.60;;
1390;SDS011;690;51.454;7.194;2023-03-21T05:19:22;20.60;;;10.03;;
1390;SDS011;690;51.454;7.194;2023-03-21T05:22:00;18.33;;;10.73;;
1390;SDS011;690;51.454;7.194;2023-03-21T05:24:30;15.60;;;10.03;;
1390;SDS011;690;51.454;7.194;2023-03-21T05:26:57;20.20;;;10.80;;
1390;SDS011;690;51.454;7.194;2023-03-21T05:29:27;17.17;;;9.93;;
1390;SDS011;690;51.454;7.194;2023-03-21T05:31:55;18.10;;;10.20;;
1390;SDS011;690;51.454;7.194;2023-03-21T05:34:22;20.30;;;10.70;;
1390;SDS011;690;51.454;7.194;2023-03-21T05:36:49;16.90;;;10.53;;
1390;SDS011;690;51.454;7.194;2023-03-21T05:39:17;19.73;;;10.03;;
1390;SDS011;690;51.454;7.194;2023-03-21T05:41:45;15.97;;;9.60;;
1390;SDS011;690;51.454;7.194;2023-03-21T05:44:12;12.97;;;9.13;;
1390;SDS011;690;51.454;7.194;2023-03-21T05:46:39;18.50;;;10.67;;
1390;SDS011;690;51.454;7.194;2023-03-21T05:49:07;15.00;;;10.00;;
1390;SDS011;690;51.454;7.194;2023-03-21T05:51:35;18.23;;;10.97;;
1390;SDS011;690;51.454;7.194;2023-03-21T05:54:02;19.23;;;9.13;;
1390;SDS011;690;51.454;7.194;2023-03-21T05:56:30;16.53;;;10.03;;
1390;SDS011;690;51.454;7.194;2023-03-21T05:58:57;15.97;;;9.53;;
1390;SDS011;690;51.454;7.194;2023-03-21T06:01:24;19.40;;;9.40;;
1390;SDS011;690;51.454;7.194;2023-03-21T06:03:50;12.40;;;9.40;;
1390;SDS011;690;51.454;7.194;2023-03-21T06:06:17;16.67;;;10.20;;
1390;SDS011;690;51.454;7.194;2023-03-21T06:08:44;18.87;;;9.73;;
1390;SDS011;690;51.454;7.194;2023-03-21T06:11:18;13.33;;;8.30;;
1390;SDS011;690;51.454;7.194;2023-03-21T06:13:50;17.47;;;9.90;;
1390;SDS011;690;51.454;7.194;2023-03-21T06:16:16;18.17;;;11.30;;
1390;SDS011;690;51.454;7.194;2023-03-21T06:18:43;20.00;;;10.47;;
1390;SDS011;690;51.454;7.194;2023-03-21T06:21:10;14.43;;;9.70;;
1390;SDS011;690;51.454;7.194;2023-03-21T06:23:37;19.57;;;9.80;;
1390;SDS011;690;51.454;7.194;2023-03-21T06:26:04;17.40;;;10.13;;
1390;SDS011;690;51.454;7.194;2023-03-21T06:28:32;13.57;;;9.00;;
1390;SDS011;690;51.454;7.194;2023-03-21T06:31:00;18.50;;;9.40;;
1390;SDS011;690;51.454;7.194;2023-03-21T06:33:27;19.43;;;11.00;;
1390;SDS011;690;51.454;7.194;2023-03-21T06:35:55;19.17;;;10.50;;
1390;SDS011;690;51.454;7.194;2023-03-21T06:38:23;21.10;;;10.63;;
1390;SDS011;690;51.454;7.194;2023-03-21T06:40:50;16.37;;;9.93;;
1390;SDS011;690;51.454;7.194;2023-03-21T06:43:17;14.20;;;9.50;;
1390;SDS011;690;51.454;7.194;2023-03-21T06:45:44;22.20;;;10.00;;
1390;SDS011;690;51.454;7.194;2023-03-21T06:48:12;18.77;;;10.53;;
1390;SDS011;690;51.454;7.194;2023-03-21T06:50:39;15.93;;;8.90;;
1390;SDS011;690;51.454;7.194;2023-03-21T06:53:06;13.30;;;8.57;;
1390;SDS011;690;51.454;7.194;2023-03-21T06:55:33;17.57;;;9.33;;
1390;SDS011;690;51.454;7.194;2023-03-21T06:58:00;21.60;;;12.10;;
1390;SDS011;690;51.454;7.194;2023-03-21T07:00:27;15.17;;;9.40;;
1390;SDS011;690;51.454;7.194;2023-03-21T07:02:54;18.47;;;9.70;;
1390;SDS011;690;51.454;7.194;2023-03-21T07:05:22;15.43;;;9.97;;
1390;SDS011;690;51.454;7.194;2023-03-21T07:07:49;18.63;;;10.83;;
1390;SDS011;690;51.454;7.194;2023-03-21T07:10:16;12.00;;;8.47;;
1390;SDS011;690;51.454;7.194;2023-03-21T07:12:43;12.70;;;8.90;;
1390;SDS011;690;51.454;7.194;2023-03-21T07:15:10;14.47;;;8.80;;
1390;SDS011;690;51.454;7.194;2023-03-21T07:17:37;15.50;;;9.10;;
1390;SDS011;690;51.454;7.194;2023-03-21T07:20:04;12.23;;;8.40;;
1390;SDS011;690;51.454;7.194;2023-03-21T07:22:33;14.53;;;9.43;;
1390;SDS011;690;51.454;7.194;2023-03-21T07:25:00;15.73;;;8.43;;
1390;SDS011;690;51.454;7.194;2023-03-21T07:27:27;14.30;;;8.83;;
1390;SDS011;690;51.454;7.194;2023-03-21T07:29:54;16.53;;;7.90;;
1390;SDS011;690;51.454;7.194;2023-03-21T07:32:21;14.97;;;8.07;;
1390;SDS011;690;51.454;7.194;2023-03-21T07:34:48;16.20;;;8.77;;
1390;SDS011;690;51.454;7.194;2023-03-21T07:37:15;13.13;;;8.20;;
1390;SDS011;690;51.454;7.194;2023-03-21T07:39:43;13.57;;;7.93;;
1390;SDS011;690;51.454;7.194;2023-03-21T07:42:10;15.57;;;7.83;;
1390;SDS011;690;51.454;7.194;2023-03-21T07:44:37;13.70;;;8.10;;
1390;SDS011;690;51.454;7.194;2023-03-21T07:47:04;17.27;;;8.60;;
1390;SDS011;690;51.454;7.194;2023-03-21T07:49:31;20.57;;;8.90;;
1390;SDS011;690;51.454;7.194;2023-03-21T07:51:58;22.77;;;9.93;;
1390;SDS011;690;51.454;7.194;2023-03-21T07:54:26;21.77;;;8.97;;
1390;SDS011;690;51.454;7.194;2023-03-21T07:56:55;17.53;;;8.00;;
1390;SDS011;690;51.454;7.194;2023-03-21T07:59:22;14.50;;;8.37;;
1390;SDS011;690;51.454;7.194;2023-03-21T08:01:49;10.30;;;7.53;;
1390;SDS011;690;51.454;7.194;2023-03-21T08:04:16;13.63;;;7.60;;
1390;SDS011;690;51.454;7.194;2023-03-21T08:06:42;14.23;;;7.90;;
1390;SDS011;690;51.454;7.194;2023-03-21T08:09:09;17.33;;;8.30;;
1390;SDS011;690;51.454;7.194;2023-03-21T08:11:36;12.33;;;7.43;;
1390;SDS011;690;51.454;7.194;2023-03-21T08:14:04;15.20;;;7.17;;
1390;SDS011;690;51.454;7.194;2023-03-21T08:16:31;13.50;;;6.90;;
1390;SDS011;690;51.454;7.194;2023-03-21T08:18:58;14.97;;;7.50;;
1390;SDS011;690;51.454;7.194;2023-03-21T08:21:25;15.13;;;7.60;;
1390;SDS011;690;51.454;7.194;2023-03-21T08:23:52;13.40;;;7.30;;
1390;SDS011;690;51.454;7.194;2023-03-21T08:26:19;16.73;;;7.60;;
1390;SDS011;690;51.454;7.194;2023-03-21T08:28:49;15.60;;;7.27;;
1390;SDS011;690;51.454;7.194;2023-03-21T08:31:17;15.03;;;7.40;;
1390;SDS011;690;51.454;7.194;2023-03-21T08:33:45;14.07;;;7.87;;
1390;SDS011;690;51.454;7.194;2023-03-21T08:36:15;13.27;;;6.77;;
1390;SDS011;690;51.454;7.194;2023-03-21T08:38:41;14.87;;;7.50;;
1390;SDS011;690;51.454;7.194;2023-03-21T08:41:10;12.57;;;7.10;;
1390;SDS011;690;51.454;7.194;2023-03-21T08:43:37;14.23;;;6.23;;
1390;SDS011;690;51.454;7.194;2023-03-21T08:46:04;10.97;;;6.27;;
1390;SDS011;690;51.454;7.194;2023-03-21T08:48:32;12.30;;;5.47;;
1390;SDS011;690;51.454;7.194;2023-03-21T08:51:02;13.40;;;5.67;;
1390;SDS011;690;51.454;7.194;2023-03-21T08:53:29;10.13;;;7.00;;
1390;SDS011;690;51.454;7.194;2023-03-21T08:55:56;13.67;;;7.17;;
1390;SDS011;690;51.454;7.194;2023-03-21T08:58:23;9.40;;;5.97;;
1390;SDS011;690;51.454;7.194;2023-03-21T09:00:50;11.27;;;5.50;;
1390;SDS011;690;51.454;7.194;2023-03-21T09:03:17;10.07;;;6.17;;
1390;SDS011;690;51.454;7.194;2023-03-21T09:05:46;8.47;;;5.17;;
1390;SDS011;690;51.454;7.194;2023-03-21T09:08:14;11.13;;;6.47;;
1390;SDS011;690;51.454;7.194;2023-03-21T09:10:40;7.23;;;5.43;;
1390;SDS011;690;51.454;7.194;2023-03-21T09:13:07;10.17;;;5.87;;
1390;SDS011;690;51.454;7.194;2023-03-21T09:15:34;9.70;;;6.33;;
1390;SDS011;690;51.454;7.194;2023-03-21T09:18:01;10.97;;;6.33;;
1390;SDS011;690;51.454;7.194;2023-03-21T09:20:38;9.83;;;6.10;;
1390;SDS011;690;51.454;7.194;2023-03-21T09:23:06;9.60;;;6.07;;
1390;SDS011;690;51.454;7.194;2023-03-21T09:25:33;11.40;;;6.40;;
1390;SDS011;690;51.454;7.194;2023-03-21T09:28:00;12.00;;;6.07;;
1390;SDS011;690;51.454;7.194;2023-03-21T09:30:28;10.83;;;5.70;;
1390;SDS011;690;51.454;7.194;2023-03-21T09:32:57;8.10;;;5.60;;
1390;SDS011;690;51.454;7.194;2023-03-21T09:35:25;9.80;;;5.20;;
1390;SDS011;690;51.454;7.194;2023-03-21T09:37:53;8.90;;;5.73;;
1390;SDS011;690;51.454;7.194;2023-03-21T09:40:28;11.30;;;6.67;;
1390;SDS011;690;51.454;7.194;2023-03-21T09:43:06;11.83;;;6.23;;
1390;SDS011;690;51.454;7.194;2023-03-21T09:45:41;11.63;;;5.93;;
1390;SDS011;690;51.454;7.194;2023-03-21T09:48:17;10.50;;;6.00;;
1390;SDS011;690;51.454;7.194;2023-03-21T09:50:54;9.03;;;5.83;;
1390;SDS011;690;51.454;7.194;2023-03-21T09:53:22;8.20;;;5.80;;
1390;SDS011;690;51.454;7.194;2023-03-21T09:55:54;10.70;;;6.00;;
1390;SDS011;690;51.454;7.194;2023-03-21T09:58:22;7.77;;;5.00;;
1390;SDS011;690;51.454;7.194;2023-03-21T10:00:54;10.53;;;6.63;;
1390;SDS011;690;51.454;7.194;2023-03-21T10:03:28;9.73;;;5.90;;
1390;SDS011;690;51.454;7.194;2023-03-21T10:05:59;13.07;;;6.03;;
1390;SDS011;690;51.454;7.194;2023-03-21T10:08:32;7.57;;;5.60;;
1390;SDS011;690;51.454;7.194;2023-03-21T10:11:04;6.83;;;5.30;;
1390;SDS011;690;51.454;7.194;2023-03-21T10:13:38;8.17;;;5.50;;
1390;SDS011;690;51.454;7.194;2023-03-21T10:16:09;5.57;;;5.07;;
1390;SDS011;690;51.454;7.194;2023-03-21T10:18:39;10.60;;;6.43;;
1390;SDS011;690;51.454;7.194;2023-03-21T10:21:09;11.53;;;6.07;;
1390;SDS011;690;51.454;7.194;2023-03-21T10:23:44;8.53;;;5.30;;
1390;SDS011;690;51.454;7.194;2023-03-21T10:26:13;9.10;;;5.00;;
1390;SDS011;690;51.454;7.194;2023-03-21T10:28:40;7.53;;;4.87;;
1390;SDS011;690;51.454;7.194;2023-03-21T10:31:08;7.60;;;4.47;;
1390;SDS011;690;51.454;7.194;2023-03-21T10:33:41;6.37;;;4.50;;
1390;SDS011;690;51.454;7.194;2023-03-21T10:36:10;8.20;;;4.57;;
1390;SDS011;690;51.454;7.194;2023-03-21T10:38:43;8.93;;;4.30;;
1390;SDS011;690;51.454;7.194;2023-03-21T10:41:13;6.50;;;4.30;;
1390;SDS011;690;51.454;7.194;2023-03-21T10:43:40;6.00;;;4.50;;
1390;SDS011;690;51.454;7.194;2023-03-21T10:46:10;7.13;;;4.20;;
1390;SDS011;690;51.454;7.194;2023-03-21T10:48:40;6.00;;;3.90;;
1390;SDS011;690;51.454;7.194;2023-03-21T10:51:11;7.07;;;4.17;;
1390;SDS011;690;51.454;7.194;2023-03-21T10:53:44;6.77;;;4.13;;
1390;SDS011;690;51.454;7.194;2023-03-21T10:56:16;10.63;;;4.17;;
1390;SDS011;690;51.454;7.194;2023-03-21T10:58:47;7.30;;;5.10;;
1390;SDS011;690;51.454;7.194;2023-03-21T11:01:21;7.73;;;3.83;;
1390;SDS011;690;51.454;7.194;2023-03-21T11:03:54;8.47;;;3.60;;
1390;SDS011;690;51.454;7.194;2023-03-21T11:06:25;6.33;;;3.80;;
1390;SDS011;690;51.454;7.194;2023-03-21T11:08:54;7.03;;;3.50;;
1390;SDS011;690;51.454;7.194;2023-03-21T11:11:26;5.27;;;3.90;;
1390;SDS011;690;51.454;7.194;2023-03-21T11:13:55;7.97;;;3.90;;
1390;SDS011;690;51.454;7.194;2023-03-21T11:16:24;7.30;;;3.80;;
1390;SDS011;690;51.454;7.194;2023-03-21T11:18:56;6.60;;;3.70;;
1390;SDS011;690;51.454;7.194;2023-03-21T11:21:27;7.20;;;4.43;;
1390;SDS011;690;51.454;7.194;2023-03-21T11:24:01;6.67;;;3.57;;
1390;SDS011;690;51.454;7.194;2023-03-21T11:26:31;9.17;;;4.27;;
1390;SDS011;690;51.454;7.194;2023-03-21T11:29:06;9.17;;;3.63;;
1390;SDS011;690;51.454;7.194;2023-03-21T11:31:39;6.80;;;4.00;;
1390;SDS011;690;51.454;7.194;2023-03-21T11:34:07;5.80;;;3.80;;
1390;SDS011;690;51.454;7.194;2023-03-21T11:36:35;11.20;;;5.33;;
1390;SDS011;690;51.454;7.194;2023-03-21T11:39:14;8.83;;;4.17;;
1390;SDS011;690;51.454;7.194;2023-03-21T11:41:56;7.60;;;4.70;;
1390;SDS011;690;51.454;7.194;2023-03-21T11:44:25;9.93;;;4.43;;
1390;SDS011;690;51.454;7.194;2023-03-21T11:46:54;8.67;;;4.13;;
1390;SDS011;690;51.454;7.194;2023-03-21T11:49:21;10.43;;;4.53;;
1390;SDS011;690;51.454;7.194;2023-03-21T11:51:51;6.80;;;3.87;;
1390;SDS011;690;51.454;7.194;2023-03-21T11:54:27;8.10;;;4.13;;
1390;SDS011;690;51.454;7.194;2023-03-21T11:57:03;8.00;;;3.60;;
1390;SDS011;690;51.454;7.194;2023-03-21T11:59:38;9.63;;;4.13;;
1390;SDS011;690;51.454;7.194;2023-03-21T12:05:21;5.60;;;2.93;;
1390;SDS011;690;51.454;7.194;2023-03-21T12:07:53;4.90;;;3.10;;
1390;SDS011;690;51.454;7.194;2023-03-21T12:10:34;9.50;;;3.53;;
1390;SDS011;690;51.454;7.194;2023-03-21T12:13:19;4.10;;;2.60;;
1390;SDS011;690;51.454;7.194;2023-03-21T12:16:00;5.00;;;2.90;;
1390;SDS011;690;51.454;7.194;2023-03-21T12:18:40;5.30;;;3.33;;
1390;SDS011;690;51.454;7.194;2023-03-21T12:21:22;4.50;;;3.10;;
1390;SDS011;690;51.454;7.194;2023-03-21T12:24:00;8.30;;;3.27;;
1390;SDS011;690;51.454;7.194;2023-03-21T12:26:34;7.10;;;3.50;;
1390;SDS011;690;51.454;7.194;2023-03-21T12:29:20;5.17;;;3.13;;
1390;SDS011;690;51.454;7.194;2023-03-21T12:32:05;4.83;;;2.90;;
1390;SDS011;690;51.454;7.194;2023-03-21T12:34:46;6.47;;;3.23;;
1390;SDS011;690;51.454;7.194;2023-03-21T12:37:29;3.63;;;2.83;;
1390;SDS011;690;51.454;7.194;2023-03-21T12:40:03;6.00;;;2.60;;
1390;SDS011;690;51.454;7.194;2023-03-21T12:42:43;6.10;;;2.70;;
1390;SDS011;690;51.454;7.194;2023-03-21T12:45:19;2.73;;;2.07;;
1390;SDS011;690;51.454;7.194;2023-03-21T12:47:50;7.90;;;2.80;;
1390;SDS011;690;51.454;7.194;2023-03-21T12:50:21;3.63;;;2.00;;
1390;SDS011;690;51.454;7.194;2023-03-21T12:52:53;5.27;;;2.60;;
1390;SDS011;690;51.454;7.194;2023-03-21T12:55:24;6.00;;;2.70;;
1390;SDS011;690;51.454;7.194;2023-03-21T12:57:56;5.57;;;2.80;;
1390;SDS011;690;51.454;7.194;2023-03-21T13:00:30;6.43;;;2.60;;
1390;SDS011;690;51.454;7.194;2023-03-21T13:03:01;5.77;;;3.10;;
1390;SDS011;690;51.454;7.194;2023-03-21T13:05:32;4.90;;;2.10;;
1390;SDS011;690;51.454;7.194;2023-03-21T13:08:03;5.90;;;2.80;;
1390;SDS011;690;51.454;7.194;2023-03-21T13:10:34;5.20;;;2.57;;
1390;SDS011;690;51.454;7.194;2023-03-21T13:13:07;5.63;;;3.07;;
1390;SDS011;690;51.454;7.194;2023-03-21T13:15:49;3.10;;;2.23;;
1390;SDS011;690;51.454;7.194;2023-03-21T13:18:27;6.93;;;2.80;;
1390;SDS011;690;51.454;7.194;2023-03-21T13:21:03;6.63;;;2.90;;
1390;SDS011;690;51.454;7.194;2023-03-21T13:23:34;6.03;;;3.10;;
1390;SDS011;690;51.454;7.194;2023-03-21T13:26:02;4.17;;;2.60;;
1390;SDS011;690;51.454;7.194;2023-03-21T13:28:35;4.80;;;3.07;;
1390;SDS011;690;51.454;7.194;2023-03-21T13:31:15;4.50;;;2.23;;
1390;SDS011;690;51.454;7.194;2023-03-21T13:33:44;5.10;;;2.83;;
1390;SDS011;690;51.454;7.194;2023-03-21T13:36:14;5.27;;;2.67;;
1390;SDS011;690;51.454;7.194;2023-03-21T13:38:48;4.40;;;2.70;;
1390;SDS011;690;51.454;7.194;2023-03-21T13:41:16;3.80;;;2.23;;
1390;SDS011;690;51.454;7.194;2023-03-21T13:43:50;5.80;;;2.97;;
1390;SDS011;690;51.454;7.194;2023-03-21T13:49:17;5.90;;;3.23;;
1390;SDS011;690;51.454;7.194;2023-03-21T13:51:52;5.03;;;3.50;;
1390;SDS011;690;51.454;7.194;2023-03-21T13:54:25;5.10;;;2.63;;
1390;SDS011;690;51.454;7.194;2023-03-21T13:56:58;3.93;;;3.03;;
1390;SDS011;690;51.454;7.194;2023-03-21T13:59:36;5.77;;;3.60;;
1390;SDS011;690;51.454;7.194;2023-03-21T14:04:57;4.20;;;2.93;;
1390;SDS011;690;51.454;7.194;2023-03-21T14:07:26;4.40;;;2.80;;
1390;SDS011;690;51.454;7.194;2023-03-21T14:09:55;5.43;;;3.40;;
1390;SDS011;690;51.454;7.194;2023-03-21T14:12:26;3.60;;;2.70;;
1390;SDS011;690;51.454;7.194;2023-03-21T14:14:57;3.47;;;2.97;;
1390;SDS011;690;51.454;7.194;2023-03-21T14:17:28;3.90;;;3.10;;
1390;SDS011;690;51.454;7.194;2023-03-21T14:20:04;6.60;;;2.83;;
1390;SDS011;690;51.454;7.194;2023-03-21T14:22:38;5.00;;;2.90;;
1390;SDS011;690;51.454;7.194;2023-03-21T14:25:06;3.80;;;3.33;;
1390;SDS011;690;51.454;7.194;2023-03-21T14:27:37;4.77;;;2.80;;
1390;SDS011;690;51.454;7.194;2023-03-21T14:30:09;5.00;;;2.90;;
1390;SDS011;690;51.454;7.194;2023-03-21T14:32:44;6.13;;;3.00;;
1390;SDS011;690;51.454;7.194;2023-03-21T14:35:14;5.27;;;3.70;;
1390;SDS011;690;51.454;7.194;2023-03-21T14:37:41;5.80;;;3.30;;
1390;SDS011;690;51.454;7.194;2023-03-21T14:40:17;5.20;;;3.80;;
1390;SDS011;690;51.454;7.194;2023-03-21T14:42:47;6.03;;;3.50;;
1390;SDS011;690;51.454;7.194;2023-03-21T14:45:15;5.10;;;3.17;;
1390;SDS011;690;51.454;7.194;2023-03-21T14:47:53;8.40;;;4.33;;
1390;SDS011;690;51.454;7.194;2023-03-21T14:50:22;8.90;;;3.43;;
1390;SDS011;690;51.454;7.194;2023-03-21T14:52:53;3.80;;;3.20;;
1390;SDS011;690;51.454;7.194;2023-03-21T14:55:22;5.60;;;3.60;;
1390;SDS011;690;51.454;7.194;2023-03-21T14:57:49;5.20;;;2.97;;
1390;SDS011;690;51.454;7.194;2023-03-21T15:00:18;3.97;;;2.40;;
1390;SDS011;690;51.454;7.194;2023-03-21T15:02:48;3.57;;;2.80;;
1390;SDS011;690;51.454;7.194;2023-03-21T15:05:18;6.77;;;3.23;;
1390;SDS011;690;51.454;7.194;2023-03-21T15:07:53;4.30;;;3.00;;
1390;SDS011;690;51.454;7.194;2023-03-21T15:10:22;3.80;;;3.03;;
1390;SDS011;690;51.454;7.194;2023-03-21T15:12:51;5.20;;;2.87;;
1390;SDS011;690;51.454;7.194;2023-03-21T15:15:20;6.10;;;2.90;;
1390;SDS011;690;51.454;7.194;2023-03-21T15:17:49;3.63;;;2.70;;
1390;SDS011;690;51.454;7.194;2023-03-21T15:20:18;4.40;;;3.33;;
1390;SDS011;690;51.454;7.194;2023-03-21T15:22:48;4.77;;;2.50;;
1390;SDS011;690;51.454;7.194;2023-03-21T15:25:20;4.80;;;2.63;;
1390;SDS011;690;51.454;7.194;2023-03-21T15:27:50;4.63;;;2.53;;
1390;SDS011;690;51.454;7.194;2023-03-21T15:30:18;4.70;;;3.10;;
1390;SDS011;690;51.454;7.194;2023-03-21T15:32:47;4.07;;;2.93;;
1390;SDS011;690;51.454;7.194;2023-03-21T15:35:15;4.23;;;3.20;;
1390;SDS011;690;51.454;7.194;2023-03-21T15:37:51;8.80;;;3.97;;
1390;SDS011;690;51.454;7.194;2023-03-21T15:40:21;5.03;;;2.57;;
1390;SDS011;690;51.454;7.194;2023-03-21T15:42:50;6.97;;;3.03;;
1390;SDS011;690;51.454;7.194;2023-03-21T15:45:29;3.57;;;3.20;;
1390;SDS011;690;51.454;7.194;2023-03-21T15:47:58;3.60;;;2.70;;
1390;SDS011;690;51.454;7.194;2023-03-21T15:50:27;3.87;;;3.13;;
1390;SDS011;690;51.454;7.194;2023-03-21T15:53:01;5.33;;;2.60;;